KMNN/MNN METAR and TAF weather

Enter ICAO airport designator
Station Type Date Time Source
KMNN METAR 2021/05/13 04:53 UTC NOAA

KMNN 130453Z AUTO 00000KT 10SM CLR 06/02 A3038 RMK AO2 SLP290 T00560017 401670011


Station Type Date Time Source
KMNN Decoded METAR 2021/05/13 04:53 UTC NOAA

MARION MUNICIPAL AIRPORT, OH, United States (KMNN) 40-37N 83-04W 301M
May 13, 2021 - 12:53 AM EDT / 2021.05.13 0453 UTC
Wind: Calm:0
Visibility: 10 mile(s):0
Sky conditions: clear
Temperature: 42.1 F (5.6 C)
Dew Point: 35.1 F (1.7 C)
Relative Humidity: 75%
Pressure (altimeter): 30.38 in. Hg (1028 hPa)
ob: KMNN 130453Z AUTO 00000KT 10SM CLR 06/02 A3038 RMK AO2 SLP290 T00560017 401670011
cycle: 5

Station Type Date Time Source
KMNN TAF UTC NOAA

Error!

Example: see airport list